sensor_id;sensor_type;location;lat;lon;timestamp;pressure;altitude;pressure_sealevel;temperature;humidity
13767;BME280;47980;48.794;9.176;2023-03-23T00:00:32;97672.31;;;14.62;54.67
13767;BME280;47980;48.794;9.176;2023-03-23T00:03:03;97676.56;;;14.67;53.32
13767;BME280;47980;48.794;9.176;2023-03-23T00:05:38;97674.63;;;14.64;53.36
13767;BME280;47980;48.794;9.176;2023-03-23T00:08:11;97671.16;;;14.60;53.71
13767;BME280;47980;48.794;9.176;2023-03-23T00:10:48;97663.19;;;14.63;54.26
13767;BME280;47980;48.794;9.176;2023-03-23T00:13:19;97664.91;;;14.52;54.92
13767;BME280;47980;48.794;9.176;2023-03-23T00:15:51;97674.31;;;14.42;56.38
13767;BME280;47980;48.794;9.176;2023-03-23T00:18:23;97662.13;;;14.45;56.26
13767;BME280;47980;48.794;9.176;2023-03-23T00:20:57;97662.66;;;14.54;54.71
13767;BME280;47980;48.794;9.176;2023-03-23T00:23:28;97664.25;;;14.59;54.65
13767;BME280;47980;48.794;9.176;2023-03-23T00:26:00;97658.50;;;14.57;55.96
13767;BME280;47980;48.794;9.176;2023-03-23T00:28:32;97659.22;;;14.54;55.20
13767;BME280;47980;48.794;9.176;2023-03-23T00:31:05;97660.72;;;14.51;54.47
13767;BME280;47980;48.794;9.176;2023-03-23T00:33:37;97650.91;;;14.59;55.28
13767;BME280;47980;48.794;9.176;2023-03-23T00:36:13;97649.56;;;14.72;54.11
13767;BME280;47980;48.794;9.176;2023-03-23T00:38:44;97645.66;;;14.66;55.07
13767;BME280;47980;48.794;9.176;2023-03-23T00:41:17;97645.97;;;14.61;56.46
13767;BME280;47980;48.794;9.176;2023-03-23T00:43:49;97642.84;;;14.55;55.83
13767;BME280;47980;48.794;9.176;2023-03-23T00:46:21;97632.81;;;14.49;56.17
13767;BME280;47980;48.794;9.176;2023-03-23T00:48:53;97636.63;;;14.48;56.15
13767;BME280;47980;48.794;9.176;2023-03-23T00:51:28;97637.00;;;14.46;56.07
13767;BME280;47980;48.794;9.176;2023-03-23T00:53:59;97626.00;;;14.51;56.03
13767;BME280;47980;48.794;9.176;2023-03-23T00:56:31;97630.47;;;14.43;56.67
13767;BME280;47980;48.794;9.176;2023-03-23T00:59:03;97626.38;;;14.50;56.04
13767;BME280;47980;48.794;9.176;2023-03-23T01:01:35;97625.53;;;14.45;55.46
13767;BME280;47980;48.794;9.176;2023-03-23T01:04:08;97621.06;;;14.50;55.31
13767;BME280;47980;48.794;9.176;2023-03-23T01:06:44;97620.59;;;14.48;55.55
13767;BME280;47980;48.794;9.176;2023-03-23T01:09:17;97625.13;;;14.43;55.66
13767;BME280;47980;48.794;9.176;2023-03-23T01:11:51;97619.78;;;14.43;55.55
13767;BME280;47980;48.794;9.176;2023-03-23T01:14:25;97625.50;;;14.42;55.77
13767;BME280;47980;48.794;9.176;2023-03-23T01:16:57;97622.09;;;14.45;55.30
13767;BME280;47980;48.794;9.176;2023-03-23T01:19:29;97622.22;;;14.52;55.02
13767;BME280;47980;48.794;9.176;2023-03-23T01:22:02;97616.75;;;14.45;55.13
13767;BME280;47980;48.794;9.176;2023-03-23T01:24:33;97614.06;;;14.45;53.85
13767;BME280;47980;48.794;9.176;2023-03-23T01:27:05;97611.41;;;14.45;54.49
13767;BME280;47980;48.794;9.176;2023-03-23T01:29:37;97598.19;;;14.52;53.63
13767;BME280;47980;48.794;9.176;2023-03-23T01:32:09;97594.25;;;14.42;53.67
13767;BME280;47980;48.794;9.176;2023-03-23T01:34:40;97598.47;;;14.47;53.50
13767;BME280;47980;48.794;9.176;2023-03-23T01:37:13;97596.56;;;14.48;53.80
13767;BME280;47980;48.794;9.176;2023-03-23T01:39:46;97589.84;;;14.54;53.56
13767;BME280;47980;48.794;9.176;2023-03-23T01:42:17;97585.56;;;14.49;54.48
13767;BME280;47980;48.794;9.176;2023-03-23T01:48:02;97583.78;;;14.30;53.79
13767;BME280;47980;48.794;9.176;2023-03-23T01:50:39;97584.53;;;14.27;54.78
13767;BME280;47980;48.794;9.176;2023-03-23T01:53:16;97587.19;;;14.27;53.99
13767;BME280;47980;48.794;9.176;2023-03-23T01:55:52;97588.25;;;14.23;54.32
13767;BME280;47980;48.794;9.176;2023-03-23T01:58:27;97581.53;;;14.32;53.32
13767;BME280;47980;48.794;9.176;2023-03-23T02:01:02;97579.53;;;14.26;54.21
13767;BME280;47980;48.794;9.176;2023-03-23T02:03:36;97579.91;;;14.24;54.09
13767;BME280;47980;48.794;9.176;2023-03-23T02:06:09;97580.66;;;14.25;54.95
13767;BME280;47980;48.794;9.176;2023-03-23T02:08:43;97580.72;;;14.28;54.31
13767;BME280;47980;48.794;9.176;2023-03-23T02:11:17;97573.81;;;14.24;54.57
13767;BME280;47980;48.794;9.176;2023-03-23T02:13:49;97576.09;;;14.25;54.63
13767;BME280;47980;48.794;9.176;2023-03-23T02:16:29;97574.59;;;14.28;54.56
13767;BME280;47980;48.794;9.176;2023-03-23T02:19:19;97576.41;;;14.20;54.72
13767;BME280;47980;48.794;9.176;2023-03-23T02:22:17;97569.56;;;14.23;54.78
13767;BME280;47980;48.794;9.176;2023-03-23T02:25:10;97573.00;;;14.23;54.46
13767;BME280;47980;48.794;9.176;2023-03-23T02:28:15;97568.91;;;14.29;54.82
13767;BME280;47980;48.794;9.176;2023-03-23T02:33:50;97562.63;;;14.14;55.49
13767;BME280;47980;48.794;9.176;2023-03-23T02:36:29;97560.03;;;14.21;55.35
13767;BME280;47980;48.794;9.176;2023-03-23T02:39:04;97548.56;;;14.17;56.61
13767;BME280;47980;48.794;9.176;2023-03-23T02:41:39;97539.75;;;14.13;56.00
13767;BME280;47980;48.794;9.176;2023-03-23T02:44:14;97530.59;;;14.14;56.78
13767;BME280;47980;48.794;9.176;2023-03-23T02:46:46;97527.84;;;14.07;57.07
13767;BME280;47980;48.794;9.176;2023-03-23T02:49:22;97533.84;;;14.01;58.05
13767;BME280;47980;48.794;9.176;2023-03-23T02:51:56;97531.09;;;13.93;58.02
13767;BME280;47980;48.794;9.176;2023-03-23T02:54:29;97533.75;;;13.93;57.18
13767;BME280;47980;48.794;9.176;2023-03-23T02:57:00;97531.19;;;14.01;57.61
13767;BME280;47980;48.794;9.176;2023-03-23T02:59:33;97523.50;;;13.95;57.39
13767;BME280;47980;48.794;9.176;2023-03-23T03:02:07;97526.50;;;13.94;57.16
13767;BME280;47980;48.794;9.176;2023-03-23T03:04:46;97520.06;;;13.95;58.43
13767;BME280;47980;48.794;9.176;2023-03-23T03:07:48;97517.03;;;13.96;58.26
13767;BME280;47980;48.794;9.176;2023-03-23T03:10:24;97518.97;;;14.00;57.37
13767;BME280;47980;48.794;9.176;2023-03-23T03:13:03;97504.97;;;14.06;56.28
13767;BME280;47980;48.794;9.176;2023-03-23T03:15:44;97512.31;;;14.13;56.68
13767;BME280;47980;48.794;9.176;2023-03-23T03:18:21;97505.13;;;14.17;57.62
13767;BME280;47980;48.794;9.176;2023-03-23T03:21:00;97515.88;;;14.24;55.60
13767;BME280;47980;48.794;9.176;2023-03-23T03:23:35;97510.53;;;14.24;55.92
13767;BME280;47980;48.794;9.176;2023-03-23T03:26:12;97515.97;;;14.31;55.86
13767;BME280;47980;48.794;9.176;2023-03-23T03:28:48;97511.81;;;14.37;56.00
13767;BME280;47980;48.794;9.176;2023-03-23T03:31:23;97505.28;;;14.31;55.72
13767;BME280;47980;48.794;9.176;2023-03-23T03:33:57;97514.41;;;14.30;56.44
13767;BME280;47980;48.794;9.176;2023-03-23T03:36:33;97507.53;;;14.29;56.55
13767;BME280;47980;48.794;9.176;2023-03-23T03:39:07;97514.47;;;14.37;55.22
13767;BME280;47980;48.794;9.176;2023-03-23T03:41:40;97514.91;;;14.39;55.57
13767;BME280;47980;48.794;9.176;2023-03-23T03:44:12;97518.25;;;14.33;56.14
13767;BME280;47980;48.794;9.176;2023-03-23T03:46:43;97513.00;;;14.40;55.72
13767;BME280;47980;48.794;9.176;2023-03-23T03:49:15;97515.34;;;14.45;55.81
13767;BME280;47980;48.794;9.176;2023-03-23T03:51:48;97506.13;;;14.39;57.22
13767;BME280;47980;48.794;9.176;2023-03-23T03:54:20;97497.41;;;14.42;55.85
13767;BME280;47980;48.794;9.176;2023-03-23T03:56:52;97496.56;;;14.34;56.24
13767;BME280;47980;48.794;9.176;2023-03-23T03:59:27;97493.50;;;14.36;57.38
13767;BME280;47980;48.794;9.176;2023-03-23T04:02:00;97495.00;;;14.33;56.31
13767;BME280;47980;48.794;9.176;2023-03-23T04:04:32;97502.31;;;14.40;55.83
13767;BME280;47980;48.794;9.176;2023-03-23T04:07:05;97497.44;;;14.45;56.09
13767;BME280;47980;48.794;9.176;2023-03-23T04:09:37;97502.31;;;14.40;56.92
13767;BME280;47980;48.794;9.176;2023-03-23T04:12:09;97500.84;;;14.42;56.06
13767;BME280;47980;48.794;9.176;2023-03-23T04:14:41;97500.69;;;14.62;54.75
13767;BME280;47980;48.794;9.176;2023-03-23T04:17:12;97500.31;;;14.60;55.03
13767;BME280;47980;48.794;9.176;2023-03-23T04:19:45;97500.25;;;14.56;56.14
13767;BME280;47980;48.794;9.176;2023-03-23T04:22:19;97506.66;;;14.52;56.61
13767;BME280;47980;48.794;9.176;2023-03-23T04:24:55;97506.66;;;14.52;55.93
13767;BME280;47980;48.794;9.176;2023-03-23T04:27:28;97507.16;;;14.61;55.52
13767;BME280;47980;48.794;9.176;2023-03-23T04:30:00;97504.75;;;14.52;56.05
13767;BME280;47980;48.794;9.176;2023-03-23T04:32:33;97504.00;;;14.52;56.16
13767;BME280;47980;48.794;9.176;2023-03-23T04:35:06;97507.44;;;14.52;56.85
13767;BME280;47980;48.794;9.176;2023-03-23T04:37:40;97503.25;;;14.51;56.63
13767;BME280;47980;48.794;9.176;2023-03-23T04:40:13;97498.56;;;14.44;57.24
13767;BME280;47980;48.794;9.176;2023-03-23T04:42:46;97498.38;;;14.60;56.74
13767;BME280;47980;48.794;9.176;2023-03-23T04:45:20;97499.31;;;14.45;57.78
13767;BME280;47980;48.794;9.176;2023-03-23T04:47:52;97503.53;;;14.46;57.39
13767;BME280;47980;48.794;9.176;2023-03-23T04:50:28;97502.75;;;14.42;57.73
13767;BME280;47980;48.794;9.176;2023-03-23T04:53:03;97492.81;;;14.42;57.01
13767;BME280;47980;48.794;9.176;2023-03-23T04:55:36;97504.38;;;14.50;57.05
13767;BME280;47980;48.794;9.176;2023-03-23T04:58:08;97502.94;;;14.56;55.98
13767;BME280;47980;48.794;9.176;2023-03-23T05:00:40;97508.03;;;14.72;55.77
13767;BME280;47980;48.794;9.176;2023-03-23T05:03:13;97505.66;;;14.63;56.21
13767;BME280;47980;48.794;9.176;2023-03-23T05:05:47;97509.84;;;14.61;56.40
13767;BME280;47980;48.794;9.176;2023-03-23T05:08:23;97507.13;;;14.57;56.75
13767;BME280;47980;48.794;9.176;2023-03-23T05:10:57;97501.44;;;14.62;55.57
13767;BME280;47980;48.794;9.176;2023-03-23T05:13:28;97499.16;;;14.61;57.55
13767;BME280;47980;48.794;9.176;2023-03-23T05:16:03;97496.44;;;14.57;57.35
13767;BME280;47980;48.794;9.176;2023-03-23T05:18:35;97497.34;;;14.72;55.89
13767;BME280;47980;48.794;9.176;2023-03-23T05:21:07;97490.38;;;14.60;57.00
13767;BME280;47980;48.794;9.176;2023-03-23T05:23:40;97491.97;;;14.68;55.79
13767;BME280;47980;48.794;9.176;2023-03-23T05:26:12;97494.63;;;14.65;57.00
13767;BME280;47980;48.794;9.176;2023-03-23T05:28:44;97489.66;;;14.63;56.73
13767;BME280;47980;48.794;9.176;2023-03-23T05:31:15;97498.53;;;14.75;55.95
13767;BME280;47980;48.794;9.176;2023-03-23T05:33:48;97493.19;;;14.75;55.68
13767;BME280;47980;48.794;9.176;2023-03-23T05:36:20;97486.78;;;14.83;55.62
13767;BME280;47980;48.794;9.176;2023-03-23T05:38:54;97499.00;;;14.84;55.81
13767;BME280;47980;48.794;9.176;2023-03-23T05:41:26;97500.59;;;14.92;55.48
13767;BME280;47980;48.794;9.176;2023-03-23T05:43:58;97501.69;;;14.87;55.61
13767;BME280;47980;48.794;9.176;2023-03-23T05:46:29;97497.13;;;14.88;55.86
13767;BME280;47980;48.794;9.176;2023-03-23T05:49:01;97494.88;;;14.90;56.22
13767;BME280;47980;48.794;9.176;2023-03-23T05:51:33;97500.22;;;14.90;55.16
13767;BME280;47980;48.794;9.176;2023-03-23T05:54:06;97501.06;;;15.01;55.11
13767;BME280;47980;48.794;9.176;2023-03-23T05:56:38;97497.63;;;15.01;55.14
13767;BME280;47980;48.794;9.176;2023-03-23T05:59:10;97509.13;;;15.05;54.50
13767;BME280;47980;48.794;9.176;2023-03-23T06:01:41;97503.81;;;15.08;54.68
13767;BME280;47980;48.794;9.176;2023-03-23T06:04:13;97521.34;;;15.09;55.26
13767;BME280;47980;48.794;9.176;2023-03-23T06:06:44;97526.31;;;15.07;56.39
13767;BME280;47980;48.794;9.176;2023-03-23T06:09:17;97526.41;;;15.18;56.07
13767;BME280;47980;48.794;9.176;2023-03-23T06:11:49;97519.91;;;15.15;55.55
13767;BME280;47980;48.794;9.176;2023-03-23T06:14:20;97532.53;;;15.19;56.25
13767;BME280;47980;48.794;9.176;2023-03-23T06:16:52;97539.41;;;15.20;55.95
13767;BME280;47980;48.794;9.176;2023-03-23T06:19:24;97543.25;;;15.22;56.00
13767;BME280;47980;48.794;9.176;2023-03-23T06:21:57;97550.09;;;15.20;55.85
13767;BME280;47980;48.794;9.176;2023-03-23T06:24:31;97548.56;;;15.19;55.82
13767;BME280;47980;48.794;9.176;2023-03-23T06:27:03;97550.06;;;15.16;55.89
13767;BME280;47980;48.794;9.176;2023-03-23T06:29:35;97552.69;;;15.12;57.56
13767;BME280;47980;48.794;9.176;2023-03-23T06:32:07;97553.84;;;15.11;55.84
13767;BME280;47980;48.794;9.176;2023-03-23T06:34:38;97548.81;;;15.06;57.34
13767;BME280;47980;48.794;9.176;2023-03-23T06:37:10;97556.78;;;15.03;57.38
13767;BME280;47980;48.794;9.176;2023-03-23T06:39:44;97562.50;;;15.01;56.73
13767;BME280;47980;48.794;9.176;2023-03-23T06:42:15;97564.41;;;15.01;58.37
13767;BME280;47980;48.794;9.176;2023-03-23T06:44:48;97565.59;;;15.03;58.11
13767;BME280;47980;48.794;9.176;2023-03-23T06:47:19;97562.94;;;15.07;56.70
13767;BME280;47980;48.794;9.176;2023-03-23T06:49:51;97567.56;;;15.13;58.39
13767;BME280;47980;48.794;9.176;2023-03-23T06:52:23;97563.16;;;15.32;57.43
13767;BME280;47980;48.794;9.176;2023-03-23T06:54:56;97563.41;;;15.64;56.32
13767;BME280;47980;48.794;9.176;2023-03-23T06:57:28;97566.31;;;15.89;55.54
13767;BME280;47980;48.794;9.176;2023-03-23T07:00:00;97572.59;;;16.22;54.48
13767;BME280;47980;48.794;9.176;2023-03-23T07:02:35;97572.72;;;16.47;53.80
13767;BME280;47980;48.794;9.176;2023-03-23T07:05:07;97575.03;;;16.52;51.96
13767;BME280;47980;48.794;9.176;2023-03-23T07:07:40;97572.34;;;16.52;53.28
13767;BME280;47980;48.794;9.176;2023-03-23T07:10:13;97577.69;;;16.48;53.24
13767;BME280;47980;48.794;9.176;2023-03-23T07:12:45;97575.00;;;16.41;53.59
13767;BME280;47980;48.794;9.176;2023-03-23T07:15:16;97584.47;;;16.24;53.21
13767;BME280;47980;48.794;9.176;2023-03-23T07:17:48;97581.78;;;16.21;52.23
13767;BME280;47980;48.794;9.176;2023-03-23T07:20:20;97584.06;;;16.19;53.83
13767;BME280;47980;48.794;9.176;2023-03-23T07:22:53;97591.28;;;16.11;54.92
13767;BME280;47980;48.794;9.176;2023-03-23T07:25:26;97590.06;;;15.98;54.47
13767;BME280;47980;48.794;9.176;2023-03-23T07:27:58;97597.31;;;15.97;53.81
13767;BME280;47980;48.794;9.176;2023-03-23T07:30:30;97601.91;;;16.00;53.90
13767;BME280;47980;48.794;9.176;2023-03-23T07:33:04;97602.69;;;16.01;53.97
13767;BME280;47980;48.794;9.176;2023-03-23T07:35:36;97622.53;;;15.96;54.81
13767;BME280;47980;48.794;9.176;2023-03-23T07:38:08;97618.75;;;16.04;54.55
13767;BME280;47980;48.794;9.176;2023-03-23T07:40:41;97630.75;;;16.25;53.80
13767;BME280;47980;48.794;9.176;2023-03-23T07:43:13;97625.06;;;16.37;53.26
13767;BME280;47980;48.794;9.176;2023-03-23T07:45:44;97627.41;;;16.39;52.99
13767;BME280;47980;48.794;9.176;2023-03-23T07:48:16;97624.38;;;16.47;52.34
13767;BME280;47980;48.794;9.176;2023-03-23T07:50:48;97628.59;;;16.55;52.06
13767;BME280;47980;48.794;9.176;2023-03-23T07:53:22;97627.25;;;16.90;52.13
13767;BME280;47980;48.794;9.176;2023-03-23T07:55:55;97626.16;;;17.09;51.55
13767;BME280;47980;48.794;9.176;2023-03-23T07:58:27;97624.66;;;17.19;51.18
13767;BME280;47980;48.794;9.176;2023-03-23T08:00:59;97612.06;;;17.30;51.56
13767;BME280;47980;48.794;9.176;2023-03-23T08:03:30;97616.63;;;17.19;52.30
13767;BME280;47980;48.794;9.176;2023-03-23T08:06:03;97627.69;;;17.03;52.75
13767;BME280;47980;48.794;9.176;2023-03-23T08:08:35;97634.44;;;16.72;53.25
13767;BME280;47980;48.794;9.176;2023-03-23T08:11:09;97642.94;;;16.88;53.42
13767;BME280;47980;48.794;9.176;2023-03-23T08:13:41;97642.94;;;16.88;53.62
13767;BME280;47980;48.794;9.176;2023-03-23T08:16:13;97644.91;;;17.05;53.59
13767;BME280;47980;48.794;9.176;2023-03-23T08:18:45;97650.56;;;16.75;54.67
13767;BME280;47980;48.794;9.176;2023-03-23T08:21:17;97631.19;;;17.18;52.96
13767;BME280;47980;48.794;9.176;2023-03-23T08:23:48;97640.72;;;17.04;54.01
13767;BME280;47980;48.794;9.176;2023-03-23T08:26:21;97646.47;;;17.21;53.42
13767;BME280;47980;48.794;9.176;2023-03-23T08:28:53;97646.13;;;17.22;53.76
13767;BME280;47980;48.794;9.176;2023-03-23T08:31:25;97651.53;;;17.37;53.83
13767;BME280;47980;48.794;9.176;2023-03-23T08:33:57;97650.31;;;17.13;54.42
13767;BME280;47980;48.794;9.176;2023-03-23T08:36:28;97652.19;;;17.01;54.80
13767;BME280;47980;48.794;9.176;2023-03-23T08:39:00;97653.66;;;16.88;55.22
13767;BME280;47980;48.794;9.176;2023-03-23T08:41:36;97653.41;;;17.22;54.53
13767;BME280;47980;48.794;9.176;2023-03-23T08:44:08;97657.66;;;17.37;54.65
13767;BME280;47980;48.794;9.176;2023-03-23T08:46:40;97654.16;;;17.22;55.40
13767;BME280;47980;48.794;9.176;2023-03-23T08:49:11;97665.56;;;16.98;55.92
13767;BME280;47980;48.794;9.176;2023-03-23T08:51:43;97665.22;;;16.99;56.43
13767;BME280;47980;48.794;9.176;2023-03-23T08:54:14;97674.75;;;16.93;56.21
13767;BME280;47980;48.794;9.176;2023-03-23T08:56:48;97681.25;;;16.92;55.80
13767;BME280;47980;48.794;9.176;2023-03-23T08:59:20;97682.81;;;17.00;55.95
13767;BME280;47980;48.794;9.176;2023-03-23T09:01:51;97679.75;;;17.05;56.05
13767;BME280;47980;48.794;9.176;2023-03-23T09:04:23;97681.56;;;16.80;57.00
13767;BME280;47980;48.794;9.176;2023-03-23T09:06:56;97688.13;;;16.86;57.17
13767;BME280;47980;48.794;9.176;2023-03-23T09:09:28;97679.41;;;17.11;56.21
13767;BME280;47980;48.794;9.176;2023-03-23T09:12:01;97688.94;;;17.01;57.08
13767;BME280;47980;48.794;9.176;2023-03-23T09:14:32;97681.72;;;17.16;55.94
13767;BME280;47980;48.794;9.176;2023-03-23T09:17:05;97696.31;;;17.29;55.93
13767;BME280;47980;48.794;9.176;2023-03-23T09:19:37;97696.31;;;17.25;56.42
13767;BME280;47980;48.794;9.176;2023-03-23T09:22:08;97702.03;;;17.27;56.12
13767;BME280;47980;48.794;9.176;2023-03-23T09:24:40;97701.25;;;17.16;56.73
13767;BME280;47980;48.794;9.176;2023-03-23T09:27:13;97704.38;;;17.36;56.32
13767;BME280;47980;48.794;9.176;2023-03-23T09:29:45;97702.44;;;17.29;56.02
13767;BME280;47980;48.794;9.176;2023-03-23T09:32:19;97712.81;;;17.38;55.47
13767;BME280;47980;48.794;9.176;2023-03-23T09:34:52;97701.91;;;16.95;56.47
13767;BME280;47980;48.794;9.176;2023-03-23T09:37:25;97712.59;;;16.84;56.88
13767;BME280;47980;48.794;9.176;2023-03-23T09:39:57;97710.06;;;17.20;55.74
13767;BME280;47980;48.794;9.176;2023-03-23T09:42:38;97710.13;;;17.45;54.54
13767;BME280;47980;48.794;9.176;2023-03-23T09:45:18;97707.06;;;17.40;54.63
13767;BME280;47980;48.794;9.176;2023-03-23T09:48:05;97721.91;;;17.08;55.44
13767;BME280;47980;48.794;9.176;2023-03-23T09:50:41;97713.47;;;17.10;56.74
13767;BME280;47980;48.794;9.176;2023-03-23T09:53:17;97714.63;;;17.09;56.40
13767;BME280;47980;48.794;9.176;2023-03-23T09:55:52;97723.94;;;17.40;55.88
13767;BME280;47980;48.794;9.176;2023-03-23T09:58:28;97727.00;;;17.49;55.59
13767;BME280;47980;48.794;9.176;2023-03-23T10:01:06;97716.75;;;17.76;54.34
13767;BME280;47980;48.794;9.176;2023-03-23T10:03:41;97730.13;;;17.69;55.07
13767;BME280;47980;48.794;9.176;2023-03-23T10:06:15;97724.44;;;17.89;54.81
13767;BME280;47980;48.794;9.176;2023-03-23T10:08:50;97736.63;;;17.68;55.07
13767;BME280;47980;48.794;9.176;2023-03-23T10:11:28;97734.00;;;17.75;55.22
13767;BME280;47980;48.794;9.176;2023-03-23T10:14:13;97729.81;;;17.89;55.35
13767;BME280;47980;48.794;9.176;2023-03-23T10:16:55;97724.84;;;18.05;54.57
13767;BME280;47980;48.794;9.176;2023-03-23T10:19:29;97732.50;;;18.21;54.62
13767;BME280;47980;48.794;9.176;2023-03-23T10:22:08;97726.38;;;18.31;53.04
13767;BME280;47980;48.794;9.176;2023-03-23T10:24:43;97730.59;;;18.14;54.71
13767;BME280;47980;48.794;9.176;2023-03-23T10:27:24;97733.56;;;17.63;55.39
13767;BME280;47980;48.794;9.176;2023-03-23T10:30:02;97737.09;;;18.10;54.90
13767;BME280;47980;48.794;9.176;2023-03-23T10:32:40;97737.47;;;18.33;54.28
13767;BME280;47980;48.794;9.176;2023-03-23T10:35:17;97739.00;;;18.63;52.75
13767;BME280;47980;48.794;9.176;2023-03-23T10:37:53;97730.94;;;18.73;53.35
13767;BME280;47980;48.794;9.176;2023-03-23T10:40:29;97730.56;;;17.93;55.58
13767;BME280;47980;48.794;9.176;2023-03-23T10:43:01;97737.78;;;17.74;55.25
13767;BME280;47980;48.794;9.176;2023-03-23T10:45:34;97732.50;;;18.03;54.57
13767;BME280;47980;48.794;9.176;2023-03-23T10:48:14;97742.44;;;17.85;55.68
13767;BME280;47980;48.794;9.176;2023-03-23T10:50:51;97740.56;;;18.03;55.40
13767;BME280;47980;48.794;9.176;2023-03-23T10:53:28;97735.94;;;18.00;54.96
13767;BME280;47980;48.794;9.176;2023-03-23T10:56:03;97730.22;;;18.05;55.81
13767;BME280;47980;48.794;9.176;2023-03-23T10:58:36;97739.81;;;18.24;55.04
13767;BME280;47980;48.794;9.176;2023-03-23T11:01:12;97735.94;;;18.32;54.71
13767;BME280;47980;48.794;9.176;2023-03-23T11:03:46;97734.78;;;18.37;55.21
13767;BME280;47980;48.794;9.176;2023-03-23T11:06:20;97719.44;;;18.48;54.46
13767;BME280;47980;48.794;9.176;2023-03-23T11:08:55;97724.03;;;18.62;54.21
13767;BME280;47980;48.794;9.176;2023-03-23T11:11:30;97735.94;;;18.53;53.61
13767;BME280;47980;48.794;9.176;2023-03-23T11:14:14;97730.56;;;18.53;54.07
13767;BME280;47980;48.794;9.176;2023-03-23T11:16:52;97715.22;;;18.50;54.05
13767;BME280;47980;48.794;9.176;2023-03-23T11:19:27;97716.00;;;18.26;54.90
13767;BME280;47980;48.794;9.176;2023-03-23T11:22:06;97720.25;;;18.23;55.03
13767;BME280;47980;48.794;9.176;2023-03-23T11:24:41;97726.38;;;18.13;55.82
13767;BME280;47980;48.794;9.176;2023-03-23T11:27:14;97727.13;;;18.39;55.18
13767;BME280;47980;48.794;9.176;2023-03-23T11:29:49;97726.38;;;18.13;55.71
13767;BME280;47980;48.794;9.176;2023-03-23T11:32:26;97721.38;;;18.04;56.75
13767;BME280;47980;48.794;9.176;2023-03-23T11:34:59;97717.56;;;18.13;55.99
13767;BME280;47980;48.794;9.176;2023-03-23T11:37:45;97715.63;;;18.42;55.34
13767;BME280;47980;48.794;9.176;2023-03-23T11:40:44;97704.13;;;18.38;55.25
13767;BME280;47980;48.794;9.176;2023-03-23T11:43:25;97710.94;;;18.89;53.58
13767;BME280;47980;48.794;9.176;2023-03-23T11:46:07;97699.78;;;18.94;52.85
13767;BME280;47980;48.794;9.176;2023-03-23T11:48:49;97706.75;;;18.73;52.86
13767;BME280;47980;48.794;9.176;2023-03-23T11:51:27;97705.59;;;18.67;53.23
13767;BME280;47980;48.794;9.176;2023-03-23T11:54:06;97699.84;;;18.55;53.20
13767;BME280;47980;48.794;9.176;2023-03-23T11:56:43;97707.53;;;18.52;54.22
13767;BME280;47980;48.794;9.176;2023-03-23T11:59:17;97704.44;;;18.75;54.59
13767;BME280;47980;48.794;9.176;2023-03-23T12:01:53;97704.38;;;19.00;52.86
13767;BME280;47980;48.794;9.176;2023-03-23T12:04:35;97707.44;;;18.99;51.86
13767;BME280;47980;48.794;9.176;2023-03-23T12:07:27;97701.00;;;18.64;52.45
13767;BME280;47980;48.794;9.176;2023-03-23T12:10:10;97700.22;;;18.67;51.48
13767;BME280;47980;48.794;9.176;2023-03-23T12:12:50;97687.84;;;18.95;51.93
13767;BME280;47980;48.794;9.176;2023-03-23T12:15:27;97697.88;;;18.87;52.47
13767;BME280;47980;48.794;9.176;2023-03-23T12:18:09;97692.44;;;19.05;51.73
13767;BME280;47980;48.794;9.176;2023-03-23T12:20:55;97693.63;;;19.74;49.77
13767;BME280;47980;48.794;9.176;2023-03-23T12:23:34;97680.31;;;19.45;50.43
13767;BME280;47980;48.794;9.176;2023-03-23T12:26:15;97704.59;;;19.35;50.64
13767;BME280;47980;48.794;9.176;2023-03-23T12:29:04;97692.19;;;20.11;48.29
13767;BME280;47980;48.794;9.176;2023-03-23T12:31:47;97693.13;;;19.93;48.90
13767;BME280;47980;48.794;9.176;2023-03-23T12:34:30;97698.59;;;19.83;48.66
13767;BME280;47980;48.794;9.176;2023-03-23T12:37:20;97691.13;;;20.01;49.48
13767;BME280;47980;48.794;9.176;2023-03-23T12:40:35;97690.34;;;20.01;48.18
13767;BME280;47980;48.794;9.176;2023-03-23T12:43:17;97689.91;;;20.09;48.10
13767;BME280;47980;48.794;9.176;2023-03-23T12:46:01;97679.44;;;20.15;48.22
13767;BME280;47980;48.794;9.176;2023-03-23T12:48:39;97677.00;;;19.86;49.90
13767;BME280;47980;48.794;9.176;2023-03-23T12:51:16;97675.03;;;19.94;49.28
13767;BME280;47980;48.794;9.176;2023-03-23T12:53:55;97673.00;;;20.05;48.59
13767;BME280;47980;48.794;9.176;2023-03-23T12:56:32;97674.19;;;20.01;49.22
13767;BME280;47980;48.794;9.176;2023-03-23T12:59:10;97673.81;;;19.46;50.38
13767;BME280;47980;48.794;9.176;2023-03-23T13:01:46;97673.91;;;19.88;49.49
13767;BME280;47980;48.794;9.176;2023-03-23T13:04:21;97665.50;;;19.82;50.57
13767;BME280;47980;48.794;9.176;2023-03-23T13:06:54;97662.59;;;19.55;51.15
13767;BME280;47980;48.794;9.176;2023-03-23T13:09:32;97661.00;;;19.68;50.66
13767;BME280;47980;48.794;9.176;2023-03-23T13:12:09;97662.75;;;19.86;49.38
13767;BME280;47980;48.794;9.176;2023-03-23T13:14:44;97652.38;;;19.88;50.04
13767;BME280;47980;48.794;9.176;2023-03-23T13:17:26;97658.72;;;19.63;49.96
13767;BME280;47980;48.794;9.176;2023-03-23T13:20:12;97655.88;;;19.81;50.17
13767;BME280;47980;48.794;9.176;2023-03-23T13:22:50;97648.13;;;19.90;49.39
13767;BME280;47980;48.794;9.176;2023-03-23T13:25:32;97638.56;;;19.82;50.14
13767;BME280;47980;48.794;9.176;2023-03-23T13:28:14;97637.53;;;19.69;50.60
13767;BME280;47980;48.794;9.176;2023-03-23T13:30:57;97641.78;;;19.66;50.07
13767;BME280;47980;48.794;9.176;2023-03-23T13:33:31;97629.09;;;19.60;49.29
13767;BME280;47980;48.794;9.176;2023-03-23T13:36:07;97631.91;;;19.42;50.28
13767;BME280;47980;48.794;9.176;2023-03-23T13:38:46;97631.50;;;19.51;50.73
13767;BME280;47980;48.794;9.176;2023-03-23T13:41:20;97629.81;;;19.71;50.66
13767;BME280;47980;48.794;9.176;2023-03-23T13:43:52;97633.69;;;19.66;49.89
13767;BME280;47980;48.794;9.176;2023-03-23T13:46:27;97621.34;;;19.73;49.37